createdAt,value
2023-01-17T00:00:00.826Z,80.40
2023-01-17T00:02:32.068Z,80.50
2023-01-17T00:05:19.244Z,80.60
2023-01-17T00:08:06.273Z,80.60
2023-01-17T00:10:35.574Z,80.70
2023-01-17T00:13:05.249Z,81.60
2023-01-17T00:15:34.429Z,80.60
2023-01-17T00:18:03.397Z,80.30
2023-01-17T00:20:51.688Z,80.40
2023-01-17T00:23:45.574Z,80.50
2023-01-17T00:26:19.034Z,80.40
2023-01-17T00:28:48.522Z,80.40
2023-01-17T00:31:18.588Z,80.30
2023-01-17T00:33:47.425Z,80.30
2023-01-17T00:36:16.237Z,80.20
2023-01-17T00:38:45.042Z,80.10
2023-01-17T00:41:15.864Z,80.20
2023-01-17T00:44:02.943Z,79.90
2023-01-17T00:46:50.142Z,79.90
2023-01-17T00:49:37.605Z,80.30
2023-01-17T00:52:24.795Z,80.00
2023-01-17T00:55:11.992Z,80.50
2023-01-17T00:57:59.023Z,80.50
2023-01-17T01:00:46.255Z,80.10
2023-01-17T01:03:34.040Z,79.80
2023-01-17T01:06:25.127Z,79.40
2023-01-17T01:09:12.755Z,80.10
2023-01-17T01:12:00.115Z,79.50
2023-01-17T01:14:47.535Z,79.50
2023-01-17T01:17:34.584Z,79.50
2023-01-17T01:20:21.823Z,79.90
2023-01-17T01:23:09.038Z,79.60
2023-01-17T01:25:56.114Z,79.80
2023-01-17T01:28:43.404Z,78.90
2023-01-17T01:31:30.611Z,78.30
2023-01-17T01:33:59.590Z,77.90
2023-01-17T01:36:28.609Z,77.50
2023-01-17T01:38:58.002Z,77.00
2023-01-17T01:41:27.057Z,76.80
2023-01-17T01:43:57.138Z,76.80
2023-01-17T01:46:46.146Z,76.70
2023-01-17T01:49:25.907Z,76.50
2023-01-17T01:52:01.067Z,76.20
2023-01-17T01:54:50.513Z,76.30
2023-01-17T01:57:24.084Z,75.60
2023-01-17T02:00:18.709Z,75.60
2023-01-17T02:02:50.615Z,75.20
2023-01-17T02:05:22.306Z,75.00
2023-01-17T02:08:18.440Z,75.00
2023-01-17T02:10:47.573Z,74.80
2023-01-17T02:13:19.275Z,74.60
2023-01-17T02:16:01.824Z,74.70
2023-01-17T02:18:43.243Z,74.20
2023-01-17T02:21:25.903Z,74.10
2023-01-17T02:24:31.500Z,73.90
2023-01-17T02:27:16.029Z,73.30
2023-01-17T02:29:50.507Z,73.50
2023-01-17T02:32:40.045Z,72.80
2023-01-17T02:35:22.421Z,73.00
2023-01-17T02:38:04.963Z,73.80
2023-01-17T02:40:42.915Z,72.20
2023-01-17T02:43:15.934Z,72.10
2023-01-17T02:45:46.760Z,72.00
2023-01-17T02:48:18.645Z,71.80
2023-01-17T02:50:50.373Z,72.00
2023-01-17T02:54:09.945Z,71.30
2023-01-17T02:56:44.398Z,71.20
2023-01-17T02:59:54.878Z,71.40
2023-01-17T03:02:38.791Z,70.30
2023-01-17T03:05:20.220Z,70.40
2023-01-17T03:07:50.541Z,71.20
2023-01-17T03:10:20.751Z,71.00
2023-01-17T03:12:50.039Z,71.00
2023-01-17T03:15:19.556Z,70.40
2023-01-17T03:17:54.843Z,71.30
2023-01-17T03:20:24.538Z,71.50
2023-01-17T03:22:53.605Z,71.30
2023-01-17T03:25:22.602Z,71.40
2023-01-17T03:27:51.581Z,70.60
2023-01-17T03:30:22.763Z,70.30
2023-01-17T03:32:52.119Z,70.10
2023-01-17T03:35:21.430Z,69.40
2023-01-17T03:37:50.454Z,69.50
2023-01-17T03:40:19.626Z,68.70
2023-01-17T03:42:48.674Z,69.30
2023-01-17T03:45:17.824Z,69.20
2023-01-17T03:47:46.979Z,68.40
2023-01-17T03:50:16.209Z,67.50
2023-01-17T03:52:45.171Z,68.40
2023-01-17T03:55:14.334Z,67.60
2023-01-17T03:57:43.368Z,65.50
2023-01-17T04:00:13.024Z,67.50
2023-01-17T04:02:41.947Z,68.10
2023-01-17T04:05:11.391Z,67.60
2023-01-17T04:07:40.845Z,66.80
2023-01-17T04:10:10.981Z,66.40
2023-01-17T04:12:39.979Z,66.20
2023-01-17T04:15:09.505Z,67.30
2023-01-17T04:17:38.536Z,67.40
2023-01-17T04:20:08.259Z,68.30
2023-01-17T04:22:37.253Z,68.20
2023-01-17T04:25:06.541Z,67.60
2023-01-17T04:27:35.637Z,67.90
2023-01-17T04:30:08.908Z,66.80
2023-01-17T04:32:37.986Z,65.00
2023-01-17T04:35:08.192Z,66.90
2023-01-17T04:37:37.793Z,67.30
2023-01-17T04:40:07.618Z,67.20
2023-01-17T04:42:36.700Z,65.30
2023-01-17T04:45:06.475Z,65.40
2023-01-17T04:47:35.861Z,66.30
2023-01-17T04:50:04.915Z,65.50
2023-01-17T04:52:34.056Z,66.80
2023-01-17T04:55:04.048Z,67.00
2023-01-17T04:57:33.068Z,67.00
2023-01-17T05:00:02.087Z,66.90
2023-01-17T05:02:31.103Z,66.90
2023-01-17T05:05:00.116Z,65.60
2023-01-17T05:07:29.159Z,66.10
2023-01-17T05:09:58.262Z,66.60
2023-01-17T05:12:27.250Z,65.20
2023-01-17T05:14:56.328Z,64.50
2023-01-17T05:17:25.307Z,65.40
2023-01-17T05:19:54.541Z,65.60
2023-01-17T05:22:23.507Z,65.20
2023-01-17T05:24:52.841Z,65.70
2023-01-17T05:27:21.926Z,66.60
2023-01-17T05:29:50.921Z,66.20
2023-01-17T05:32:20.035Z,65.40
2023-01-17T05:34:49.127Z,65.70
2023-01-17T05:37:18.438Z,65.00
2023-01-17T05:39:47.501Z,65.70
2023-01-17T05:42:16.704Z,66.10
2023-01-17T05:44:45.772Z,66.20
2023-01-17T05:47:14.783Z,65.70
2023-01-17T05:49:45.882Z,66.00
2023-01-17T05:52:15.059Z,65.60
2023-01-17T05:54:44.090Z,65.40
2023-01-17T05:57:14.313Z,65.50
2023-01-17T05:59:43.322Z,64.80
2023-01-17T06:02:12.977Z,64.80
2023-01-17T06:04:42.232Z,65.00
2023-01-17T06:07:11.268Z,65.00
2023-01-17T06:09:40.541Z,65.40
2023-01-17T06:12:09.652Z,64.50
2023-01-17T06:14:38.807Z,65.00
2023-01-17T06:17:07.810Z,64.30
2023-01-17T06:19:39.884Z,63.90
2023-01-17T06:22:09.301Z,63.50
2023-01-17T06:24:38.344Z,61.50
2023-01-17T06:27:09.767Z,62.60
2023-01-17T06:29:39.490Z,62.80
2023-01-17T06:32:08.559Z,62.90
2023-01-17T06:34:39.473Z,63.40
2023-01-17T06:37:09.062Z,64.00
2023-01-17T06:39:38.151Z,63.90
2023-01-17T06:42:07.573Z,61.90
2023-01-17T06:44:36.609Z,63.00
2023-01-17T06:47:05.747Z,63.50
2023-01-17T06:49:35.109Z,63.00
2023-01-17T06:52:04.158Z,62.30
2023-01-17T06:54:33.321Z,62.60
2023-01-17T06:57:02.455Z,60.40
2023-01-17T06:59:31.797Z,62.30
2023-01-17T07:02:00.900Z,62.00
2023-01-17T07:04:30.073Z,60.30
2023-01-17T07:06:59.066Z,61.40
2023-01-17T07:09:28.088Z,61.50
2023-01-17T07:12:00.826Z,61.60
2023-01-17T07:14:33.681Z,62.00
2023-01-17T07:17:02.672Z,62.50
2023-01-17T07:19:31.880Z,62.00
2023-01-17T07:22:03.670Z,61.40
2023-01-17T07:24:33.943Z,61.40
2023-01-17T07:27:03.025Z,61.70
2023-01-17T07:29:31.986Z,61.20
2023-01-17T07:32:00.956Z,60.80
2023-01-17T07:34:29.972Z,61.20
2023-01-17T07:36:59.489Z,60.60
2023-01-17T07:39:28.770Z,60.40
2023-01-17T07:41:57.822Z,59.70
2023-01-17T07:44:26.945Z,59.30
2023-01-17T07:46:56.634Z,59.30
2023-01-17T07:49:25.624Z,60.30
2023-01-17T07:51:56.352Z,60.00
2023-01-17T07:54:25.926Z,59.60
2023-01-17T07:56:54.973Z,59.80
2023-01-17T07:59:24.090Z,59.30
2023-01-17T08:01:53.310Z,60.00
2023-01-17T08:04:22.563Z,59.80
2023-01-17T08:06:52.937Z,59.20
2023-01-17T08:09:22.020Z,58.40
2023-01-17T08:11:51.113Z,59.00
2023-01-17T08:14:20.104Z,59.10
2023-01-17T08:16:49.102Z,59.20
2023-01-17T08:19:18.499Z,59.20
2023-01-17T08:21:47.604Z,59.20
2023-01-17T08:24:16.765Z,59.20
2023-01-17T08:26:45.752Z,59.70
2023-01-17T08:29:15.122Z,58.50
2023-01-17T08:31:46.773Z,59.00
2023-01-17T08:34:15.800Z,56.10
2023-01-17T08:36:45.947Z,58.10
2023-01-17T08:39:15.624Z,58.40
2023-01-17T08:41:44.736Z,58.40
2023-01-17T08:44:14.989Z,57.90
2023-01-17T08:46:45.262Z,59.00
2023-01-17T08:49:14.325Z,58.80
2023-01-17T08:51:43.415Z,59.20
2023-01-17T08:54:14.031Z,58.90
2023-01-17T08:56:48.111Z,58.50
2023-01-17T08:59:17.197Z,58.10
2023-01-17T09:01:47.129Z,58.30
2023-01-17T09:04:17.029Z,58.90
2023-01-17T09:06:48.629Z,58.40
2023-01-17T09:09:19.046Z,58.40
2023-01-17T09:11:48.281Z,58.20
2023-01-17T09:14:18.056Z,58.50
2023-01-17T09:16:47.571Z,58.10
2023-01-17T09:19:16.532Z,58.30
2023-01-17T09:21:45.778Z,58.00
2023-01-17T09:24:14.846Z,57.80
2023-01-17T09:26:43.878Z,57.90
2023-01-17T09:29:14.755Z,57.60
2023-01-17T09:31:43.849Z,58.20
2023-01-17T09:34:12.822Z,58.30
2023-01-17T09:36:42.819Z,58.40
2023-01-17T09:39:13.025Z,58.40
2023-01-17T09:42:03.293Z,58.20
2023-01-17T09:44:53.469Z,57.10
2023-01-17T09:47:42.810Z,58.50
2023-01-17T09:50:30.129Z,58.70
2023-01-17T09:53:24.019Z,58.60
2023-01-17T09:56:04.992Z,58.90
2023-01-17T09:58:52.290Z,58.20
2023-01-17T10:01:33.709Z,58.60
2023-01-17T10:04:32.856Z,58.30
2023-01-17T10:07:35.786Z,58.30
2023-01-17T10:10:15.606Z,58.10
2023-01-17T10:13:05.557Z,58.80
2023-01-17T10:15:40.124Z,59.00
2023-01-17T10:18:30.413Z,59.30
2023-01-17T10:21:02.508Z,59.50
2023-01-17T10:23:43.989Z,59.60
2023-01-17T10:26:40.045Z,59.70
2023-01-17T10:29:20.006Z,59.60
2023-01-17T10:32:01.777Z,59.90
2023-01-17T10:34:53.556Z,60.00
2023-01-17T10:37:44.724Z,60.30
2023-01-17T10:40:20.946Z,60.40
2023-01-17T10:43:25.117Z,60.40
2023-01-17T10:45:57.129Z,60.70
2023-01-17T10:48:47.839Z,60.90
2023-01-17T10:51:52.640Z,61.00
2023-01-17T10:54:21.254Z,61.20
2023-01-17T10:56:50.313Z,61.20
2023-01-17T10:59:36.045Z,61.50
2023-01-17T11:02:07.965Z,61.70
2023-01-17T11:04:38.265Z,61.90
2023-01-17T11:07:13.634Z,62.10
2023-01-17T11:09:54.026Z,62.20
2023-01-17T11:12:44.269Z,62.30
2023-01-17T11:15:13.306Z,62.60
2023-01-17T11:18:01.685Z,62.60
2023-01-17T11:20:41.708Z,62.80
2023-01-17T11:23:42.417Z,63.00
2023-01-17T11:26:22.484Z,63.20
2023-01-17T11:28:53.310Z,63.30
2023-01-17T11:31:22.258Z,63.40
2023-01-17T11:34:06.413Z,63.50
2023-01-17T11:36:35.579Z,63.70
2023-01-17T11:39:30.005Z,63.70
2023-01-17T11:41:59.819Z,63.80
2023-01-17T11:44:32.577Z,64.60
2023-01-17T11:47:13.915Z,64.20
2023-01-17T11:49:48.235Z,64.40
2023-01-17T11:52:40.149Z,64.60
2023-01-17T11:55:09.335Z,64.80
2023-01-17T11:57:38.322Z,64.80
2023-01-17T12:00:49.396Z,65.00
2023-01-17T12:03:24.301Z,65.50
2023-01-17T12:06:12.909Z,65.40
2023-01-17T12:08:54.075Z,66.40
2023-01-17T12:12:00.977Z,65.80
2023-01-17T12:14:53.611Z,65.90
2023-01-17T12:17:37.402Z,66.20
2023-01-17T12:20:13.955Z,66.50
2023-01-17T12:23:01.508Z,66.40
2023-01-17T12:25:46.284Z,66.70
2023-01-17T12:28:18.095Z,66.80
2023-01-17T12:30:53.250Z,67.20
2023-01-17T12:33:37.595Z,67.30
2023-01-17T12:36:18.585Z,67.60
2023-01-17T12:38:50.043Z,69.40
2023-01-17T12:41:18.958Z,67.90
2023-01-17T12:43:48.163Z,68.00
2023-01-17T12:46:22.132Z,68.20
2023-01-17T12:48:55.565Z,68.30
2023-01-17T12:51:32.465Z,70.30
2023-01-17T12:54:01.386Z,68.80
2023-01-17T12:56:35.902Z,68.90
2023-01-17T12:59:16.977Z,68.90
2023-01-17T13:01:58.648Z,69.10
2023-01-17T13:04:38.432Z,69.30
2023-01-17T13:07:49.070Z,69.30
2023-01-17T13:10:40.791Z,70.20
2023-01-17T13:13:21.171Z,70.00
2023-01-17T13:15:55.279Z,70.10
2023-01-17T13:18:30.828Z,70.00
2023-01-17T13:21:18.530Z,70.10
2023-01-17T13:24:07.083Z,70.20
2023-01-17T13:26:58.024Z,70.40
2023-01-17T13:29:36.071Z,70.40
2023-01-17T13:32:08.073Z,70.40
2023-01-17T13:34:55.165Z,70.50
2023-01-17T13:37:48.784Z,70.80
2023-01-17T13:40:29.471Z,71.30
2023-01-17T13:43:04.346Z,71.40
2023-01-17T13:45:38.168Z,71.40
2023-01-17T13:48:19.812Z,71.60
2023-01-17T13:50:52.315Z,72.20
2023-01-17T13:53:36.439Z,72.30
2023-01-17T13:56:20.947Z,73.00
2023-01-17T13:58:55.967Z,72.80
2023-01-17T14:01:25.075Z,72.90
2023-01-17T14:03:54.187Z,73.00
2023-01-17T14:06:46.455Z,73.00
2023-01-17T14:09:29.199Z,74.00
2023-01-17T14:12:05.836Z,73.40
2023-01-17T14:14:46.411Z,73.40
2023-01-17T14:17:24.756Z,73.50
2023-01-17T14:20:03.754Z,73.30
2023-01-17T14:22:39.546Z,73.50
2023-01-17T14:25:22.111Z,73.40
2023-01-17T14:28:15.418Z,73.50
2023-01-17T14:30:44.703Z,73.30
2023-01-17T14:33:27.429Z,73.40
2023-01-17T14:36:04.568Z,72.80
2023-01-17T14:38:35.609Z,72.40
2023-01-17T14:41:13.013Z,72.00
2023-01-17T14:43:44.621Z,72.00
2023-01-17T14:46:30.475Z,72.00
2023-01-17T14:49:05.187Z,71.60
2023-01-17T14:51:38.764Z,71.50
2023-01-17T14:54:22.757Z,71.40
2023-01-17T14:56:51.699Z,71.20
2023-01-17T14:59:24.309Z,71.10
2023-01-17T15:02:07.965Z,71.00
2023-01-17T15:04:40.274Z,71.00
2023-01-17T15:07:14.694Z,71.10
2023-01-17T15:09:45.936Z,71.00
2023-01-17T15:12:15.621Z,70.90
2023-01-17T15:14:48.614Z,71.10
2023-01-17T15:17:25.453Z,71.10
2023-01-17T15:20:05.091Z,71.20
2023-01-17T15:22:35.208Z,71.10
2023-01-17T15:25:04.875Z,71.00
2023-01-17T15:27:34.555Z,71.20
2023-01-17T15:30:05.100Z,71.50
2023-01-17T15:32:34.174Z,71.20
2023-01-17T15:35:04.124Z,71.30
2023-01-17T15:37:36.223Z,71.30
2023-01-17T15:40:05.191Z,71.20
2023-01-17T15:42:36.454Z,71.20
2023-01-17T15:45:10.442Z,71.50
2023-01-17T15:47:43.536Z,71.60
2023-01-17T15:50:28.791Z,71.60
2023-01-17T15:53:04.271Z,71.90
2023-01-17T15:55:49.249Z,71.90
2023-01-17T15:58:28.429Z,71.80
2023-01-17T16:00:58.439Z,72.20
2023-01-17T16:03:32.156Z,72.10
2023-01-17T16:06:04.069Z,72.30
2023-01-17T16:08:40.660Z,72.00
2023-01-17T16:11:12.746Z,72.10
2023-01-17T16:13:44.312Z,72.30
2023-01-17T16:16:27.045Z,72.40
2023-01-17T16:19:02.275Z,72.40
2023-01-17T16:21:32.864Z,72.30
2023-01-17T16:24:03.912Z,72.40
2023-01-17T16:26:33.015Z,72.60
2023-01-17T16:29:02.133Z,72.80
2023-01-17T16:31:31.109Z,72.90
2023-01-17T16:34:00.451Z,72.90
2023-01-17T16:36:29.860Z,72.90
2023-01-17T16:38:58.942Z,73.50
2023-01-17T16:41:27.937Z,73.30
2023-01-17T16:44:04.503Z,73.00
2023-01-17T16:46:33.830Z,73.00
2023-01-17T16:49:03.151Z,73.00
2023-01-17T16:51:32.860Z,73.00
2023-01-17T16:54:02.829Z,73.60
2023-01-17T16:56:31.857Z,73.80
2023-01-17T16:59:00.875Z,73.20
2023-01-17T17:01:30.120Z,73.10
2023-01-17T17:03:59.154Z,73.20
2023-01-17T17:06:28.169Z,73.00
2023-01-17T17:08:57.134Z,73.30
2023-01-17T17:11:26.369Z,73.00
2023-01-17T17:13:55.563Z,73.30
2023-01-17T17:16:34.041Z,73.30
2023-01-17T17:19:05.559Z,73.40
2023-01-17T17:21:36.448Z,73.30
2023-01-17T17:24:06.328Z,73.20
2023-01-17T17:26:37.926Z,73.40
2023-01-17T17:29:08.552Z,73.20
2023-01-17T17:31:37.866Z,73.60
2023-01-17T17:34:10.242Z,73.40
2023-01-17T17:36:39.985Z,73.70
2023-01-17T17:39:12.928Z,73.50
2023-01-17T17:41:44.895Z,73.70
2023-01-17T17:44:14.040Z,73.80
2023-01-17T17:46:44.020Z,73.90
2023-01-17T17:49:13.228Z,74.00
2023-01-17T17:51:42.413Z,73.60
2023-01-17T17:54:14.141Z,73.70
2023-01-17T17:56:47.592Z,73.80
2023-01-17T17:59:21.337Z,74.10
2023-01-17T18:01:51.019Z,74.50
2023-01-17T18:04:20.559Z,74.30
2023-01-17T18:06:49.516Z,74.40
2023-01-17T18:09:18.778Z,74.40
2023-01-17T18:11:48.310Z,74.00
2023-01-17T18:14:18.820Z,74.90
2023-01-17T18:16:48.800Z,74.60
2023-01-17T18:19:24.633Z,74.30
2023-01-17T18:21:54.386Z,74.10
2023-01-17T18:24:25.560Z,74.30
2023-01-17T18:26:59.029Z,74.60
2023-01-17T18:29:28.845Z,74.60
2023-01-17T18:31:57.984Z,75.00
2023-01-17T18:34:30.334Z,75.10
2023-01-17T18:36:59.771Z,75.00
2023-01-17T18:39:30.887Z,75.10
2023-01-17T18:42:00.145Z,75.10
2023-01-17T18:44:29.326Z,74.80
2023-01-17T18:47:05.567Z,75.00
2023-01-17T18:49:35.582Z,75.00
2023-01-17T18:52:04.666Z,75.00
2023-01-17T18:54:33.677Z,75.10
2023-01-17T18:57:02.648Z,75.40
2023-01-17T18:59:31.758Z,75.30
2023-01-17T19:02:00.672Z,75.20
2023-01-17T19:04:29.778Z,75.20
2023-01-17T19:06:58.785Z,75.60
2023-01-17T19:09:27.883Z,75.80
2023-01-17T19:11:58.037Z,75.60
2023-01-17T19:14:27.072Z,75.20
2023-01-17T19:16:58.341Z,75.40
2023-01-17T19:19:27.322Z,75.50
2023-01-17T19:21:56.276Z,75.30
2023-01-17T19:24:25.377Z,74.90
2023-01-17T19:26:55.137Z,75.70
2023-01-17T19:29:24.187Z,75.80
2023-01-17T19:31:53.293Z,75.70
2023-01-17T19:34:22.456Z,75.70
2023-01-17T19:36:51.484Z,76.10
2023-01-17T19:39:21.349Z,76.20
2023-01-17T19:41:50.318Z,76.40
2023-01-17T19:44:19.362Z,76.10
2023-01-17T19:46:48.563Z,76.00
2023-01-17T19:49:21.713Z,76.00
2023-01-17T19:51:51.233Z,76.00
2023-01-17T19:54:20.228Z,76.20
2023-01-17T19:56:49.327Z,76.20
2023-01-17T19:59:21.111Z,76.40
2023-01-17T20:01:50.674Z,76.30
2023-01-17T20:04:19.873Z,76.30
2023-01-17T20:06:48.878Z,76.10
2023-01-17T20:09:17.819Z,75.90
2023-01-17T20:11:47.796Z,76.30
2023-01-17T20:14:17.671Z,76.00
2023-01-17T20:16:48.582Z,76.20
2023-01-17T20:19:18.244Z,76.60
2023-01-17T20:21:47.704Z,76.50
2023-01-17T20:24:17.783Z,76.40
2023-01-17T20:26:47.116Z,76.60
2023-01-17T20:29:18.314Z,76.60
2023-01-17T20:31:47.652Z,76.60
2023-01-17T20:34:19.844Z,76.70
2023-01-17T20:36:49.196Z,76.50
2023-01-17T20:39:19.370Z,76.80
2023-01-17T20:41:50.116Z,76.80
2023-01-17T20:44:20.672Z,77.00
2023-01-17T20:46:49.631Z,78.30
2023-01-17T20:49:21.036Z,77.10
2023-01-17T20:51:50.115Z,77.30
2023-01-17T20:54:20.438Z,77.00
2023-01-17T20:56:49.803Z,76.80
2023-01-17T20:59:23.589Z,76.90
2023-01-17T21:01:53.105Z,77.00
2023-01-17T21:04:27.008Z,77.20
2023-01-17T21:06:56.453Z,77.30
2023-01-17T21:09:25.580Z,77.20
2023-01-17T21:11:55.451Z,76.80
2023-01-17T21:14:24.498Z,77.00
2023-01-17T21:16:53.573Z,77.30
2023-01-17T21:19:23.850Z,77.20
2023-01-17T21:21:52.946Z,77.20
2023-01-17T21:24:22.021Z,76.90
2023-01-17T21:26:52.540Z,77.30
2023-01-17T21:29:21.688Z,77.60
2023-01-17T21:31:50.753Z,77.40
2023-01-17T21:34:19.749Z,77.10
2023-01-17T21:36:48.775Z,77.40
2023-01-17T21:39:20.877Z,77.30
2023-01-17T21:41:51.870Z,77.40
2023-01-17T21:44:24.027Z,77.60
2023-01-17T21:46:56.003Z,77.40
2023-01-17T21:49:25.596Z,77.40
2023-01-17T21:51:54.620Z,77.70
2023-01-17T21:55:00.982Z,77.70
2023-01-17T21:57:48.234Z,77.60
2023-01-17T22:00:17.739Z,77.90
2023-01-17T22:02:48.188Z,77.70
2023-01-17T22:05:17.936Z,77.90
2023-01-17T22:08:13.219Z,78.10
2023-01-17T22:10:45.996Z,78.10
2023-01-17T22:13:19.926Z,78.10
2023-01-17T22:16:00.289Z,78.00
2023-01-17T22:18:30.152Z,78.30
2023-01-17T22:20:59.771Z,78.40
2023-01-17T22:23:28.748Z,78.60
2023-01-17T22:26:06.594Z,78.70
2023-01-17T22:28:36.069Z,78.60
2023-01-17T22:31:10.209Z,79.40
2023-01-17T22:33:40.802Z,78.80
2023-01-17T22:36:11.401Z,78.80
2023-01-17T22:38:44.339Z,78.80
2023-01-17T22:41:35.353Z,78.90
2023-01-17T22:44:04.549Z,78.80
2023-01-17T22:46:36.899Z,78.90
2023-01-17T22:49:08.804Z,78.90
2023-01-17T22:51:37.828Z,79.10
2023-01-17T22:54:06.888Z,79.10
2023-01-17T22:56:36.125Z,79.30
2023-01-17T22:59:06.809Z,79.30
2023-01-17T23:01:35.773Z,79.20
2023-01-17T23:04:06.111Z,79.30
2023-01-17T23:06:40.636Z,79.30
2023-01-17T23:09:14.877Z,79.20
2023-01-17T23:11:48.256Z,79.30
2023-01-17T23:14:27.661Z,81.10
2023-01-17T23:17:17.567Z,79.80
2023-01-17T23:19:55.648Z,79.50
2023-01-17T23:22:29.352Z,79.60
2023-01-17T23:25:00.961Z,79.60
2023-01-17T23:27:52.344Z,80.00
2023-01-17T23:30:30.361Z,79.80
2023-01-17T23:33:01.195Z,79.80
2023-01-17T23:35:33.786Z,79.50
2023-01-17T23:38:21.211Z,79.30
2023-01-17T23:41:08.778Z,79.50
2023-01-17T23:43:39.081Z,79.60
2023-01-17T23:46:13.394Z,79.60
2023-01-17T23:48:41.873Z,79.50
2023-01-17T23:51:10.874Z,81.50
2023-01-17T23:53:41.064Z,80.20
2023-01-17T23:56:19.557Z,80.10
2023-01-17T23:58:48.771Z,79.90
